< Typhoon 201508 2015 Season Typhoon 201510 >
Typhoon 201509 (CHAN-HOM)
General InformationTrack Information on Google MapsDetailed Wind InformationForecast History on Google MapsAccess Analytics MapList of All Images || NewsDisaster Info.WeblogTrackbackTyphoon FrontTwiphoonTyphoon Now!Typhoon ImaginationDisaster Info. XMLResourceGoogle EarthGE AnimationAtom FeedGeoJSON
Detalied Best Track (Time Zone = UTC)
Year Month Day Hour Lat. Long. Pressure (hPa) Wind (kt) Class Image Chart
2015 6 29 06 8.6 160.4 1004 0 2 Image Chart
2015 6 29 12 8.9 160.6 1004 0 2 Image Chart
2015 6 29 18 9.2 160.8 1002 0 2 Image Chart
2015 6 30 00 9.6 160.8 1002 0 2 Image Chart
2015 6 30 06 10.0 160.7 1000 0 2 Image Chart
2015 6 30 12 10.3 160.4 998 35 3 Image Chart
2015 6 30 18 10.8 159.7 996 40 3 Image Chart
2015 7 1 00 10.9 159.0 994 40 3 Image Chart
2015 7 1 06 11.1 158.3 994 40 3 Image Chart
2015 7 1 12 11.5 156.1 990 45 3 Image Chart
2015 7 1 18 11.7 154.0 985 50 4 Image Chart
2015 7 2 00 11.4 152.1 985 50 4 Image Chart
2015 7 2 06 10.8 150.3 985 50 4 Image Chart
2015 7 2 12 10.0 149.0 980 55 4 Image Chart
2015 7 2 18 9.8 148.0 980 55 4 Image Chart
2015 7 3 00 10.3 147.9 980 55 4 Image Chart
2015 7 3 06 10.8 148.0 985 50 4 Image Chart
2015 7 3 12 11.4 148.5 990 45 3 Image Chart
2015 7 3 18 12.2 148.6 990 45 3 Image Chart
2015 7 4 00 12.7 148.0 990 45 3 Image Chart
2015 7 4 06 13.2 147.1 990 45 3 Image Chart
2015 7 4 12 13.5 146.2 990 45 3 Image Chart
2015 7 4 18 13.7 145.6 990 45 3 Image Chart
2015 7 5 00 13.8 145.2 990 45 3 Image Chart
2015 7 5 06 14.5 144.9 990 45 3 Image Chart
2015 7 5 12 15.1 144.2 990 45 3 Image Chart
2015 7 5 18 15.9 143.4 985 50 4 Image Chart
2015 7 6 00 16.5 142.6 980 55 4 Image Chart
2015 7 6 06 17.2 141.4 980 55 4 Image Chart
2015 7 6 12 17.4 140.2 980 55 4 Image Chart
2015 7 6 18 17.5 138.8 975 60 4 Image Chart
2015 7 7 00 17.7 137.6 970 65 5 Image Chart
2015 7 7 06 18.1 136.4 965 70 5 Image Chart
2015 7 7 12 18.5 135.5 965 70 5 Image Chart
2015 7 7 18 19.1 134.4 965 70 5 Image Chart
2015 7 8 00 19.6 133.5 965 70 5 Image Chart
2015 7 8 06 20.4 132.6 965 70 5 Image Chart
2015 7 8 12 21.0 131.7 965 70 5 Image Chart
2015 7 8 18 21.7 130.6 965 70 5 Image Chart
2015 7 9 00 22.5 129.6 965 70 5 Image Chart
2015 7 9 03 23.0 129.2 965 70 5 Image Chart
2015 7 9 06 23.3 128.7 960 75 5 Image Chart
2015 7 9 09 23.8 128.2 955 80 5 Image Chart
2015 7 9 12 24.2 127.6 945 85 5 Image Chart
2015 7 9 15 24.6 127.1 940 85 5 Image Chart
2015 7 9 18 25.1 126.5 935 90 5 Image Chart
2015 7 9 21 25.5 125.9 935 90 5 Image Chart
2015 7 10 00 25.7 125.5 935 90 5 Image Chart
2015 7 10 03 26.1 125.1 935 90 5 Image Chart
2015 7 10 06 26.5 124.7 935 90 5 Image Chart
2015 7 10 09 26.9 124.3 935 90 5 Image Chart
2015 7 10 12 27.3 124.0 940 85 5 Image Chart
2015 7 10 18 27.8 123.3 945 85 5 Image Chart
2015 7 11 00 28.7 122.9 950 80 5 Image Chart
2015 7 11 06 29.5 122.5 960 75 5 Image Chart
2015 7 11 12 30.3 122.9 965 70 5 Image Chart
2015 7 11 18 31.8 123.2 970 60 4 Image Chart
2015 7 12 00 33.3 123.6 975 55 4 Image Chart
2015 7 12 06 34.9 124.2 980 50 4 Image Chart
2015 7 12 12 36.5 124.7 985 45 3 Image Chart
2015 7 12 18 38.2 125.4 985 40 3 Image Chart
2015 7 13 00 40.0 126.0 986 0 6 Image Chart
Japan Meteorological Agency Best Track Data | Correction Date : 2015-08-19
< Typhoon 201508 2015 Season Typhoon 201510 >

Help